createdAt,value
2018-10-16T00:04:33.160Z,11.30
2018-10-16T00:09:36.097Z,11.20
2018-10-16T00:14:39.063Z,11.20
2018-10-16T00:19:42.172Z,11.10
2018-10-16T00:24:45.169Z,11.00
2018-10-16T00:29:48.160Z,11.00
2018-10-16T00:34:51.142Z,10.90
2018-10-16T00:39:54.149Z,10.90
2018-10-16T00:44:57.231Z,10.90
2018-10-16T00:50:00.279Z,10.80
2018-10-16T00:55:04.841Z,10.80
2018-10-16T01:00:09.449Z,10.80
2018-10-16T01:05:12.883Z,10.80
2018-10-16T01:10:15.931Z,10.80
2018-10-16T01:15:18.885Z,10.70
2018-10-16T01:20:21.844Z,10.50
2018-10-16T01:25:24.789Z,10.40
2018-10-16T01:30:27.753Z,10.30
2018-10-16T01:35:30.671Z,10.20
2018-10-16T01:40:33.839Z,10.30
2018-10-16T01:45:36.834Z,10.30
2018-10-16T01:50:39.851Z,10.40
2018-10-16T01:55:43.272Z,10.40
2018-10-16T02:00:46.259Z,10.20
2018-10-16T02:05:49.208Z,10.00
2018-10-16T02:10:52.199Z,10.10
2018-10-16T02:15:55.270Z,10.00
2018-10-16T02:20:58.232Z,9.90
2018-10-16T02:26:03.178Z,9.90
2018-10-16T02:31:06.169Z,9.90
2018-10-16T02:36:09.132Z,10.00
2018-10-16T02:41:12.101Z,10.10
2018-10-16T02:46:15.163Z,10.10
2018-10-16T02:51:18.335Z,10.00
2018-10-16T02:56:21.246Z,10.20
2018-10-16T03:01:24.252Z,10.70
2018-10-16T03:06:27.266Z,10.90
2018-10-16T03:11:30.189Z,11.10
2018-10-16T03:16:33.176Z,11.10
2018-10-16T03:21:36.194Z,11.10
2018-10-16T03:26:39.474Z,11.10
2018-10-16T03:31:42.600Z,11.10
2018-10-16T03:36:45.631Z,10.90
2018-10-16T03:41:48.663Z,10.70
2018-10-16T03:46:51.642Z,10.60
2018-10-16T03:51:54.582Z,10.50
2018-10-16T03:56:57.586Z,10.60
2018-10-16T04:02:02.591Z,10.60
2018-10-16T04:07:05.615Z,10.40
2018-10-16T04:12:08.707Z,10.20
2018-10-16T04:17:11.740Z,10.10
2018-10-16T04:22:14.680Z,10.00
2018-10-16T04:27:17.771Z,10.10
2018-10-16T04:32:20.734Z,10.00
2018-10-16T04:37:23.700Z,9.80
2018-10-16T04:42:26.718Z,9.60
2018-10-16T04:47:30.055Z,9.60
2018-10-16T04:52:33.135Z,9.50
2018-10-16T04:57:36.498Z,9.50
2018-10-16T05:02:40.610Z,9.50
2018-10-16T05:07:43.644Z,9.40
2018-10-16T05:12:46.632Z,9.40
2018-10-16T05:17:49.580Z,9.40
2018-10-16T05:22:53.288Z,9.60
2018-10-16T05:27:56.796Z,9.60
2018-10-16T05:32:59.761Z,9.60
2018-10-16T05:38:05.698Z,9.60
2018-10-16T05:43:08.748Z,9.60
2018-10-16T05:48:11.680Z,9.60
2018-10-16T05:53:14.676Z,9.50
2018-10-16T05:58:17.643Z,9.50
2018-10-16T06:03:20.672Z,9.50
2018-10-16T06:08:23.692Z,9.50
2018-10-16T06:13:26.692Z,9.50
2018-10-16T06:18:29.755Z,9.70
2018-10-16T06:23:32.808Z,9.90
2018-10-16T06:28:35.799Z,10.10
2018-10-16T06:33:38.828Z,10.20
2018-10-16T06:38:41.793Z,10.50
2018-10-16T06:43:44.846Z,11.40
2018-10-16T06:48:48.190Z,12.80
2018-10-16T06:53:50.842Z,13.40
2018-10-16T06:58:53.922Z,13.90
2018-10-16T07:03:56.936Z,14.40
2018-10-16T07:08:59.940Z,14.70
2018-10-16T07:14:08.212Z,15.10
2018-10-16T07:19:11.230Z,15.30
2018-10-16T07:24:14.260Z,15.60
2018-10-16T07:29:17.242Z,15.80
2018-10-16T07:34:20.258Z,16.20
2018-10-16T07:39:23.237Z,16.40
2018-10-16T07:44:26.289Z,16.70
2018-10-16T07:49:29.321Z,16.80
2018-10-16T07:54:32.376Z,16.40
2018-10-16T07:59:35.791Z,16.50
2018-10-16T08:04:38.861Z,16.60
2018-10-16T08:09:41.813Z,16.40
2018-10-16T08:14:44.836Z,16.60
2018-10-16T08:19:47.983Z,17.00
2018-10-16T08:24:50.989Z,16.70
2018-10-16T08:29:54.084Z,16.70
2018-10-16T08:34:57.387Z,16.70
2018-10-16T08:40:00.392Z,16.80
2018-10-16T08:46:20.674Z,16.60
2018-10-16T08:51:38.483Z,16.70
2018-10-16T08:56:41.589Z,16.50
2018-10-16T09:01:44.693Z,16.60
2018-10-16T09:06:47.823Z,16.90
2018-10-16T09:11:50.711Z,17.00
2018-10-16T09:16:53.647Z,17.10
2018-10-16T09:21:56.565Z,16.80
2018-10-16T09:26:59.528Z,17.00
2018-10-16T09:32:05.120Z,17.20
2018-10-16T09:37:08.229Z,17.40
2018-10-16T09:42:11.276Z,17.40
2018-10-16T09:47:14.220Z,17.50
2018-10-16T09:52:17.237Z,17.60
2018-10-16T09:57:20.480Z,17.90
2018-10-16T10:02:23.435Z,17.90
2018-10-16T10:07:26.647Z,18.10
2018-10-16T10:17:38.649Z,18.20
2018-10-16T10:22:41.644Z,18.30
2018-10-16T10:27:44.600Z,18.50
2018-10-16T10:32:48.330Z,18.80
2018-10-16T10:37:51.357Z,18.80
2018-10-16T10:42:54.331Z,19.10
2018-10-16T10:47:57.347Z,19.30
2018-10-16T10:53:00.318Z,19.60
2018-10-16T10:58:05.198Z,19.70
2018-10-16T11:03:08.284Z,19.90
2018-10-16T11:08:11.356Z,20.00
2018-10-16T11:13:14.345Z,20.20
2018-10-16T11:18:19.035Z,20.10
2018-10-16T11:23:22.046Z,20.20
2018-10-16T11:28:25.074Z,20.30
2018-10-16T11:33:28.056Z,20.50
2018-10-16T11:38:31.079Z,20.90
2018-10-16T11:43:34.173Z,21.10
2018-10-16T11:48:37.151Z,21.30
2018-10-16T11:53:40.287Z,21.30
2018-10-16T11:58:43.365Z,21.40
2018-10-16T12:03:46.387Z,21.50
2018-10-16T12:08:49.305Z,21.50
2018-10-16T12:13:52.478Z,21.60
2018-10-16T12:18:58.948Z,21.80
2018-10-16T12:24:04.784Z,22.10
2018-10-16T12:29:08.174Z,22.30
2018-10-16T12:34:11.042Z,22.50
2018-10-16T12:39:14.234Z,22.70
2018-10-16T12:44:17.159Z,22.60
2018-10-16T12:49:20.624Z,22.70
2018-10-16T12:54:23.675Z,22.70
2018-10-16T12:59:26.643Z,22.90
2018-10-16T13:04:29.769Z,23.20
2018-10-16T13:09:32.709Z,23.40
2018-10-16T13:14:36.037Z,23.40
2018-10-16T13:19:39.031Z,23.50
2018-10-16T13:24:42.010Z,23.60
2018-10-16T13:29:45.267Z,23.50
2018-10-16T13:34:48.224Z,23.60
2018-10-16T13:39:51.752Z,23.60
2018-10-16T13:44:54.737Z,23.70
2018-10-16T13:49:57.792Z,23.60
2018-10-16T13:55:02.550Z,23.80
2018-10-16T14:00:13.803Z,23.70
2018-10-16T14:05:17.015Z,23.80
2018-10-16T14:10:20.053Z,23.90
2018-10-16T14:15:23.088Z,24.00
2018-10-16T14:20:26.079Z,23.90
2018-10-16T14:25:29.025Z,23.80
2018-10-16T14:30:32.084Z,23.80
2018-10-16T14:35:35.106Z,23.90
2018-10-16T14:40:38.193Z,23.80
2018-10-16T14:45:41.131Z,23.90
2018-10-16T14:50:44.113Z,23.90
2018-10-16T14:55:47.079Z,23.80
2018-10-16T15:00:50.337Z,23.90
2018-10-16T15:05:53.431Z,23.80
2018-10-16T15:10:56.471Z,23.70
2018-10-16T15:15:59.528Z,23.70
2018-10-16T15:21:03.227Z,23.50
2018-10-16T15:26:06.565Z,23.50
2018-10-16T15:31:09.402Z,23.40
2018-10-16T15:36:12.397Z,23.40
2018-10-16T15:41:15.667Z,23.30
2018-10-16T15:46:18.811Z,23.20
2018-10-16T15:51:21.779Z,23.00
2018-10-16T15:56:24.720Z,22.80
2018-10-16T16:01:27.867Z,22.60
2018-10-16T16:06:30.799Z,22.50
2018-10-16T16:11:33.711Z,22.40
2018-10-16T16:16:36.746Z,22.30
2018-10-16T16:21:39.987Z,22.00
2018-10-16T16:26:42.987Z,21.60
2018-10-16T16:31:45.970Z,21.20
2018-10-16T16:36:48.912Z,21.70
2018-10-16T16:41:52.073Z,21.70
2018-10-16T16:46:55.659Z,21.50
2018-10-16T16:51:58.630Z,21.40
2018-10-16T16:57:03.813Z,21.10
2018-10-16T17:02:06.930Z,21.20
2018-10-16T17:07:09.793Z,21.00
2018-10-16T17:12:12.792Z,20.90
2018-10-16T17:17:15.707Z,20.50
2018-10-16T17:22:18.712Z,20.30
2018-10-16T17:27:22.027Z,20.20
2018-10-16T17:32:25.053Z,20.00
2018-10-16T17:37:27.961Z,20.00
2018-10-16T17:42:31.013Z,19.90
2018-10-16T17:47:34.450Z,20.00
2018-10-16T17:52:37.669Z,20.00
2018-10-16T17:57:40.852Z,19.80
2018-10-16T18:02:44.307Z,19.60
2018-10-16T18:07:47.377Z,19.60
2018-10-16T18:12:50.407Z,19.60
2018-10-16T18:17:53.605Z,19.40
2018-10-16T18:22:56.877Z,19.30
2018-10-16T18:28:00.081Z,19.30
2018-10-16T18:33:04.823Z,19.10
2018-10-16T18:38:08.044Z,18.90
2018-10-16T18:43:11.082Z,18.70
2018-10-16T18:48:14.209Z,18.50
2018-10-16T18:53:17.184Z,18.40
2018-10-16T18:58:20.171Z,18.40
2018-10-16T19:03:23.193Z,18.40
2018-10-16T19:08:26.245Z,18.30
2018-10-16T19:13:29.541Z,18.10
2018-10-16T19:18:32.586Z,18.10
2018-10-16T19:23:35.600Z,18.00
2018-10-16T19:28:39.099Z,17.80
2018-10-16T19:33:42.559Z,17.80
2018-10-16T19:38:45.966Z,17.90
2018-10-16T19:43:49.391Z,17.80
2018-10-16T19:48:52.505Z,17.60
2018-10-16T19:53:55.595Z,17.60
2018-10-16T19:58:58.633Z,17.90
2018-10-16T20:04:03.045Z,18.00
2018-10-16T20:09:09.014Z,17.80
2018-10-16T20:14:12.051Z,17.40
2018-10-16T20:19:15.033Z,17.20
2018-10-16T20:24:18.069Z,17.10
2018-10-16T20:29:21.125Z,17.20
2018-10-16T20:34:24.153Z,17.10
2018-10-16T20:39:27.231Z,17.10
2018-10-16T20:44:30.337Z,17.10
2018-10-16T20:49:34.482Z,17.10
2018-10-16T20:54:37.504Z,17.20
2018-10-16T20:59:42.052Z,17.20
2018-10-16T21:04:45.073Z,17.20
2018-10-16T21:09:48.365Z,17.20
2018-10-16T21:14:51.383Z,17.20
2018-10-16T21:19:54.368Z,17.30
2018-10-16T21:24:57.396Z,17.30
2018-10-16T21:30:01.609Z,17.30
2018-10-16T21:35:05.281Z,17.30
2018-10-16T21:40:08.610Z,17.20
2018-10-16T21:45:11.713Z,17.10
2018-10-16T21:50:14.808Z,17.00
2018-10-16T21:55:17.858Z,16.90
2018-10-16T22:00:26.670Z,16.80
2018-10-16T22:05:29.686Z,16.40
2018-10-16T22:10:32.584Z,16.20
2018-10-16T22:15:35.487Z,16.00
2018-10-16T22:20:38.501Z,15.70
2018-10-16T22:25:41.481Z,15.60
2018-10-16T22:30:44.486Z,15.60
2018-10-16T22:35:47.458Z,15.60
2018-10-16T22:40:50.497Z,15.50
2018-10-16T22:45:53.457Z,15.50
2018-10-16T22:50:56.450Z,15.50
2018-10-16T22:55:59.444Z,15.40
2018-10-16T23:01:02.772Z,15.20
2018-10-16T23:06:06.096Z,15.30
2018-10-16T23:11:09.038Z,15.20
2018-10-16T23:16:12.796Z,15.00
2018-10-16T23:21:15.785Z,14.90
2018-10-16T23:26:18.763Z,14.80
2018-10-16T23:31:21.902Z,14.40
2018-10-16T23:36:24.892Z,14.00
2018-10-16T23:41:27.841Z,13.80
2018-10-16T23:46:31.132Z,13.70
2018-10-16T23:51:34.471Z,13.90
2018-10-16T23:56:37.444Z,14.00
